Kumanomaru — JI3406 — position and weather

sailwx.info

Track history (hours):
 
Tides and Currents Weather Stations Pressure Air Temp Water Temp Dewpoint Dewpoint Depression Visibility Wind Speed Wind Dir Waves Ship Positions

Kumanomaru

Last reported at 2017-Oct-14 02:19 UTC. Time now 2017-Oct-20 12:46 UTC.
Position N 35°19' E 139°40'.

Length 28 m.

Type: Towing. MMSI: 431400837.

Date/timePositionNaut miles runAvg speedWind from/ knotsBaromVisibWave heightAir tempDewpointWater temp
2017-Oct-14 02:19N 35°19' E 139°40'0 0.0
2017-Oct-12 03:26N 35°19' E 139°40'3 6.7
2017-Oct-12 03:01N 35°22' E 139°41'3 4.4
2017-Oct-12 02:25N 35°24' E 139°40'0 0.5
2017-Oct-12 01:38N 35°24' E 139°40'0 1.1
2017-Oct-12 01:18N 35°24' E 139°40'4 0.9
2017-Oct-11 21:09N 35°21' E 139°41'8 0.4
2017-Oct-10 23:58N 35°15' E 139°47'3 7.2
2017-Oct-10 23:30N 35°11' E 139°47'3 6.4
2017-Oct-10 23:00N 35°08' E 139°47'2 4.2
2017-Oct-10 22:30N 35°06' E 139°46'4 7.6
2017-Oct-10 22:00N 35°03' E 139°45'  
2017-Oct-04 18:12N 34°29' E 135°11'2 4.2
2017-Oct-04 17:50N 34°28' E 135°09'8 2.4
2017-Oct-04 14:43N 34°35' E 135°04'1 4.1
2017-Oct-04 14:26N 34°36' E 135°03'  
Track history (hours):
 
Tides and Currents Weather Stations Pressure Air Temp Water Temp Dewpoint Dewpoint Depression Visibility Wind Speed Wind Dir Waves Ship Positions

Kumanomaru

Last reported at 2017-Oct-14 02:19 UTC. Time now 2017-Oct-20 12:46 UTC.
Position N 35°19' E 139°40'.

Length 28 m.

Type: Towing. MMSI: 431400837.

Date/timePositionNaut miles runAvg speedWind from/ knotsBaromVisibWave heightAir tempDewpointWater temp
2017-Oct-14 02:19N 35°19' E 139°40'0 0.0
2017-Oct-12 03:26N 35°19' E 139°40'3 6.7
2017-Oct-12 03:01N 35°22' E 139°41'3 4.4
2017-Oct-12 02:25N 35°24' E 139°40'0 0.5
2017-Oct-12 01:38N 35°24' E 139°40'0 1.1
2017-Oct-12 01:18N 35°24' E 139°40'4 0.9
2017-Oct-11 21:09N 35°21' E 139°41'8 0.4
2017-Oct-10 23:58N 35°15' E 139°47'3 7.2
2017-Oct-10 23:30N 35°11' E 139°47'3 6.4
2017-Oct-10 23:00N 35°08' E 139°47'2 4.2
2017-Oct-10 22:30N 35°06' E 139°46'4 7.6
2017-Oct-10 22:00N 35°03' E 139°45'  
2017-Oct-04 18:12N 34°29' E 135°11'2 4.2
2017-Oct-04 17:50N 34°28' E 135°09'8 2.4
2017-Oct-04 14:43N 34°35' E 135°04'1 4.1
2017-Oct-04 14:26N 34°36' E 135°03'  

Dump ship's entire track history